Time;durP1;ratioP1;P1;durP2;ratioP2;P2;SDS_P1;SDS_P2;PMS_P1;PMS_P2;Temp;Humidity;BMP_temperature;BMP_pressure;BME280_temperature;BME280_humidity;BME280_pressure;Samples;Min_cycle;Max_cycle;Signal;HPM_P1;HPM_P2
2022/04/25 00:03:12;;;;;;;12.27;8.85;;;;;;;11.97;83.28;99662.00;8271462;28;20091;-62
2022/04/25 00:07:12;;;;;;;15.18;9.05;;;;;;;12.05;82.49;99667.44;8257109;28;20052;-62
2022/04/25 00:11:12;;;;;;;11.65;8.88;;;;;;;12.11;81.69;99670.31;8256981;28;20043;-62
2022/04/25 00:15:13;;;;;;;15.45;8.57;;;;;;;12.16;81.10;99669.78;8255367;28;20121;-62
2022/04/25 00:19:13;;;;;;;15.07;8.95;;;;;;;12.17;80.73;99679.63;8256912;28;20042;-62
2022/04/25 00:23:14;;;;;;;15.53;10.33;;;;;;;12.25;80.59;99668.75;8256562;28;20103;-62
2022/04/25 00:27:14;;;;;;;16.70;12.35;;;;;;;12.20;80.21;99676.56;8256556;28;20264;-62
2022/04/25 00:31:14;;;;;;;18.00;12.40;;;;;;;12.17;80.85;99668.78;8256553;28;20095;-62
2022/04/25 00:35:15;;;;;;;16.52;13.18;;;;;;;12.14;81.04;99669.94;8254767;28;20475;-62
2022/04/25 00:39:15;;;;;;;19.88;13.23;;;;;;;12.12;80.34;99673.84;8255921;28;20050;-62
2022/04/25 00:43:16;;;;;;;12.43;10.18;;;;;;;12.12;79.14;99684.69;8255346;28;20149;-62
2022/04/25 00:47:18;;;;;;;14.63;10.35;;;;;;;12.13;80.73;99699.94;8248784;28;20414;-63
2022/04/25 00:51:19;;;;;;;17.92;11.73;;;;;;;11.94;86.49;99703.84;8253230;28;20038;-63
2022/04/25 00:55:19;;;;;;;15.38;10.93;;;;;;;11.22;89.92;99663.94;8255934;28;20056;-62
2022/04/25 00:59:22;;;;;;;17.10;13.13;;;;;;;10.73;96.06;99691.00;8256403;28;20459;-62
2022/04/25 01:03:22;;;;;;;17.08;13.48;;;;;;;10.43;96.31;99692.31;8256009;28;20042;-62
2022/04/25 01:07:23;;;;;;;21.05;14.73;;;;;;;10.26;100.00;99703.19;8255948;28;20180;-62
2022/04/25 01:11:24;;;;;;;25.40;16.05;;;;;;;10.16;100.00;99711.41;8255656;28;20038;-62
2022/04/25 01:15:28;;;;;;;22.85;14.70;;;;;;;10.18;100.00;99698.59;8255530;28;20384;-62
2022/04/25 01:19:29;;;;;;;25.57;16.77;;;;;;;10.11;100.00;99702.94;8251247;28;20104;-62
2022/04/25 01:27:49;;;;;;;23.23;17.23;;;;;;;9.88;100.00;99707.09;8250298;28;20046;-62
2022/04/25 01:31:50;;;;;;;17.10;14.38;;;;;;;9.84;100.00;99703.88;8255820;28;20038;-62
2022/04/25 01:35:50;;;;;;;18.80;14.85;;;;;;;9.78;100.00;99692.84;8249232;28;20099;-62
2022/04/25 01:39:52;;;;;;;22.27;16.42;;;;;;;9.75;100.00;99702.09;8262467;28;20042;-62
2022/04/25 01:43:53;;;;;;;19.75;14.45;;;;;;;9.68;100.00;99694.78;8258067;28;20035;-62
2022/04/25 01:47:53;;;;;;;14.75;11.50;;;;;;;9.59;100.00;99691.16;8254924;28;20035;-62
2022/04/25 01:51:54;;;;;;;15.20;11.27;;;;;;;9.52;100.00;99683.84;8255394;28;20042;-62
2022/04/25 01:55:54;;;;;;;15.55;10.90;;;;;;;9.54;100.00;99684.53;8253453;28;20322;-62
2022/04/25 01:59:55;;;;;;;17.25;10.65;;;;;;;9.57;100.00;99684.22;8253293;28;20399;-62
2022/04/25 02:03:55;;;;;;;15.35;10.70;;;;;;;9.60;100.00;99697.38;8254821;28;20462;-62
2022/04/25 02:07:56;;;;;;;14.45;10.23;;;;;;;9.60;100.00;99692.84;8254447;28;20057;-62
2022/04/25 02:11:56;;;;;;;13.38;10.10;;;;;;;9.60;100.00;99694.69;8254461;28;20057;-62
2022/04/25 02:15:58;;;;;;;14.13;10.20;;;;;;;9.69;100.00;99701.88;8253186;28;20091;-62
2022/04/25 02:19:59;;;;;;;12.95;9.30;;;;;;;9.64;100.00;99709.59;8248493;28;20049;-62
2022/04/25 02:24:00;;;;;;;14.43;10.65;;;;;;;9.81;100.00;99724.91;8280737;28;20038;-62
2022/04/25 02:28:00;;;;;;;14.02;10.18;;;;;;;9.92;100.00;99730.91;8250970;28;20123;-62
2022/04/25 02:32:02;;;;;;;14.00;10.32;;;;;;;10.01;100.00;99750.75;8258039;28;20046;-62
2022/04/25 02:36:06;;;;;;;13.73;10.30;;;;;;;9.90;100.00;99764.47;8259963;28;20402;-62
2022/04/25 02:40:07;;;;;;;13.30;10.27;;;;;;;9.87;100.00;99772.88;8259316;28;20034;-62
2022/04/25 02:44:08;;;;;;;17.92;10.90;;;;;;;9.82;100.00;99767.94;8259398;28;20038;-62
2022/04/25 02:48:08;;;;;;;15.50;10.60;;;;;;;9.89;100.00;99762.81;8257726;28;20053;-62
2022/04/25 02:52:08;;;;;;;17.50;12.85;;;;;;;10.00;100.00;99760.69;8259803;28;20035;-62
2022/04/25 02:56:09;;;;;;;18.70;13.20;;;;;;;10.02;100.00;99760.53;8257760;28;20038;-62
2022/04/25 03:00:10;;;;;;;19.05;13.80;;;;;;;9.99;100.00;99758.16;8258628;28;20107;-62
2022/04/25 03:04:11;;;;;;;22.95;16.27;;;;;;;9.87;100.00;99752.16;8257829;28;20046;-62
2022/04/25 03:08:14;;;;;;;21.45;16.33;;;;;;;9.89;100.00;99768.19;8257111;28;20065;-62
2022/04/25 03:12:16;;;;;;;25.60;17.65;;;;;;;9.91;100.00;99761.63;8258618;28;20494;-62
2022/04/25 03:16:18;;;;;;;24.42;17.05;;;;;;;9.89;100.00;99760.09;8243844;28;20045;-62
2022/04/25 03:20:18;;;;;;;29.65;19.90;;;;;;;9.89;100.00;99757.41;8257341;28;20049;-62
2022/04/25 03:24:19;;;;;;;28.05;18.55;;;;;;;9.77;100.00;99745.13;8281576;28;20034;-62
2022/04/25 03:28:20;;;;;;;24.50;17.23;;;;;;;9.58;100.00;99740.72;8240644;28;20049;-62
2022/04/25 03:32:20;;;;;;;26.08;17.67;;;;;;;9.53;100.00;99740.34;8258211;28;20600;-62
2022/04/25 03:36:20;;;;;;;24.67;16.50;;;;;;;9.51;100.00;99742.34;8258094;28;20035;-63
2022/04/25 03:40:21;;;;;;;28.48;17.08;;;;;;;9.55;100.00;99754.50;8257920;28;20776;-62
2022/04/25 03:44:21;;;;;;;25.88;17.60;;;;;;;9.51;100.00;99757.66;8256266;28;20054;-62
2022/04/25 03:48:22;;;;;;;21.38;16.08;;;;;;;9.50;100.00;99755.97;8257751;28;20068;-62
2022/04/25 03:52:23;;;;;;;25.80;15.98;;;;;;;9.50;100.00;99761.38;8281490;28;20479;-62
2022/04/25 03:57:24;;;;;;;26.48;15.35;;;;;;;9.47;100.00;99756.28;8288882;28;20042;-61
2022/04/25 04:00:44;;;;;;;26.77;17.70;;;;;;;9.37;100.00;99760.91;8254855;28;20031;-62
2022/04/25 04:04:44;;;;;;;27.00;18.10;;;;;;;9.33;100.00;99759.53;8248140;28;20045;-63
2022/04/25 04:08:45;;;;;;;27.50;17.60;;;;;;;9.32;100.00;99755.09;8254567;28;20056;-63
2022/04/25 04:12:46;;;;;;;30.80;19.83;;;;;;;9.37;100.00;99766.31;8244742;28;20073;-62
2022/04/25 04:16:46;;;;;;;32.13;19.02;;;;;;;9.37;100.00;99767.13;8252342;28;20521;-62
2022/04/25 04:20:47;;;;;;;31.92;21.08;;;;;;;9.35;100.00;99752.09;8249787;28;20451;-63
2022/04/25 04:24:48;;;;;;;29.85;20.33;;;;;;;9.35;100.00;99757.50;8275363;28;20046;-62
2022/04/25 04:28:48;;;;;;;30.02;19.70;;;;;;;9.30;100.00;99759.81;8253228;28;20482;-62
2022/04/25 04:32:51;;;;;;;28.58;18.77;;;;;;;9.30;100.00;99749.88;8253377;28;20402;-62
2022/04/25 04:36:51;;;;;;;31.08;19.25;;;;;;;9.16;100.00;99744.13;8253683;28;20042;-63
2022/04/25 04:40:52;;;;;;;28.52;18.30;;;;;;;9.18;100.00;99747.53;8248937;28;20126;-62
2022/04/25 04:44:52;;;;;;;26.63;17.42;;;;;;;9.23;100.00;99739.81;8235023;28;20498;-63
2022/04/25 04:48:52;;;;;;;25.90;16.02;;;;;;;9.21;100.00;99741.84;8274462;28;20051;-62
2022/04/25 04:52:56;;;;;;;26.35;16.35;;;;;;;9.27;100.00;99760.94;8250378;28;20058;-63
2022/04/25 04:56:57;;;;;;;28.23;17.38;;;;;;;9.51;100.00;99780.13;8243169;28;20164;-62
2022/04/25 05:00:58;;;;;;;24.90;15.77;;;;;;;9.62;100.00;99795.25;8254956;28;20046;-62
2022/04/25 05:04:59;;;;;;;22.60;16.25;;;;;;;9.49;100.00;99797.47;8245025;28;20047;-63
2022/04/25 05:08:59;;;;;;;24.98;16.38;;;;;;;9.52;100.00;99791.75;8234162;28;20096;-62
2022/04/25 05:13:00;;;;;;;25.93;15.83;;;;;;;9.39;100.00;99796.66;8251749;28;20030;-63
2022/04/25 05:17:00;;;;;;;21.85;14.43;;;;;;;9.36;100.00;99796.94;8246752;28;20310;-62
2022/04/25 05:21:01;;;;;;;22.88;15.60;;;;;;;9.40;100.00;99795.66;8242016;28;20418;-62
2022/04/25 05:25:02;;;;;;;22.02;14.70;;;;;;;9.46;100.00;99803.16;8274451;28;20046;-63
2022/04/25 05:29:02;;;;;;;22.67;13.75;;;;;;;9.47;100.00;99802.16;8244023;28;20038;-62
2022/04/25 05:33:03;;;;;;;21.27;13.57;;;;;;;9.46;100.00;99795.91;8247366;28;20050;-63
2022/04/25 05:37:03;;;;;;;19.70;13.80;;;;;;;9.57;100.00;99795.69;8240713;28;20042;-63
2022/04/25 05:41:04;;;;;;;19.65;13.02;;;;;;;9.67;100.00;99806.44;8247589;28;20521;-63
2022/04/25 05:45:06;;;;;;;22.75;13.68;;;;;;;9.81;100.00;99808.59;8251113;28;20041;-63
2022/04/25 05:53:26;;;;;;;21.25;14.82;;;;;;;10.07;100.00;99820.38;8251559;28;20497;-63
2022/04/25 05:57:27;;;;;;;26.33;17.17;;;;;;;10.14;100.00;99826.84;8250499;28;20046;-63
2022/04/25 06:01:27;;;;;;;27.52;17.35;;;;;;;10.33;100.00;99832.09;8250032;28;20042;-63
2022/04/25 06:05:28;;;;;;;24.17;16.90;;;;;;;10.46;100.00;99831.69;8256966;28;20046;-63
2022/04/25 06:09:29;;;;;;;32.88;20.92;;;;;;;10.51;100.00;99835.63;8255572;28;20046;-63
2022/04/25 06:13:29;;;;;;;39.70;23.80;;;;;;;10.72;100.00;99838.81;8255698;28;20549;-63
2022/04/25 06:17:29;;;;;;;31.83;20.70;;;;;;;10.81;100.00;99854.09;8256773;28;20278;-63
2022/04/25 06:21:30;;;;;;;41.80;24.58;;;;;;;11.10;100.00;99849.19;8256626;28;20026;-63
2022/04/25 06:25:30;;;;;;;35.85;23.38;;;;;;;11.32;100.00;99848.63;8257964;28;20038;-63
2022/04/25 06:29:31;;;;;;;33.50;21.27;;;;;;;11.74;100.00;99859.50;8254611;28;20045;-63
2022/04/25 06:33:32;;;;;;;29.23;19.77;;;;;;;11.58;99.86;99860.28;8256559;28;20038;-63
2022/04/25 06:37:32;;;;;;;25.35;20.13;;;;;;;11.44;99.13;99858.16;8254909;28;20542;-63
2022/04/25 06:41:33;;;;;;;26.27;19.08;;;;;;;11.29;100.00;99859.78;8256928;28;20049;-63
2022/04/25 06:45:33;;;;;;;27.05;18.15;;;;;;;11.08;100.00;99861.19;8254553;28;20166;-62
2022/04/25 06:49:34;;;;;;;27.30;18.88;;;;;;;11.00;100.00;99870.09;8238771;28;20571;-62
2022/04/25 06:53:34;;;;;;;24.98;17.55;;;;;;;10.95;100.00;99867.03;8255954;28;20365;-63
2022/04/25 06:57:35;;;;;;;29.45;19.20;;;;;;;11.07;100.00;99871.16;8255601;28;20103;-63
2022/04/25 07:01:36;;;;;;;25.45;17.55;;;;;;;11.38;100.00;99885.06;8255835;28;20069;-63
2022/04/25 07:05:36;;;;;;;26.50;15.48;;;;;;;11.47;99.85;99884.09;8256020;28;20494;-63
2022/04/25 07:09:37;;;;;;;22.52;16.08;;;;;;;11.56;99.87;99894.78;8255438;28;20049;-63
2022/04/25 07:13:41;;;;;;;22.35;16.08;;;;;;;11.61;99.10;99892.44;8253234;28;20038;-63
2022/04/25 07:17:42;;;;;;;;;;;;;;;11.56;97.50;99911.00;8255557;28;20411;-63
2022/04/25 07:30:23;;;;;;;26.05;16.60;;;;;;;11.64;99.11;99897.56;8254964;28;20031;-63
2022/04/25 07:34:23;;;;;;;26.55;16.23;;;;;;;11.82;97.16;99901.03;8255381;28;20691;-63
2022/04/25 07:38:24;;;;;;;23.90;16.25;;;;;;;11.81;95.14;99912.84;8255144;28;20121;-63
2022/04/25 07:42:24;;;;;;;23.92;17.45;;;;;;;11.64;94.65;99908.41;8255084;28;20035;-63
2022/04/25 07:46:26;;;;;;;24.80;17.70;;;;;;;11.78;96.57;99910.47;8254280;28;20042;-63
2022/04/25 07:50:26;;;;;;;26.10;17.60;;;;;;;11.66;96.24;99917.22;8254264;28;20038;-63
2022/04/25 07:54:27;;;;;;;28.60;19.50;;;;;;;11.93;97.31;99917.97;8254392;28;20306;-63
2022/04/25 07:58:27;;;;;;;27.50;19.33;;;;;;;12.19;97.46;99925.00;8236777;28;20487;-63
2022/04/25 08:02:28;;;;;;;23.08;17.55;;;;;;;12.35;92.58;99914.19;8254809;28;20065;-63
2022/04/25 08:06:29;;;;;;;207.35;36.38;;;;;;;12.43;92.21;99921.50;8253967;28;20050;-63
2022/04/25 08:10:29;;;;;;;22.10;17.08;;;;;;;12.49;92.32;99927.13;8252769;28;20047;-63
2022/04/25 08:18:51;;;;;;;22.83;16.45;;;;;;;12.90;89.45;99936.13;8253871;28;20588;-63
2022/04/25 08:22:52;;;;;;;23.88;14.70;;;;;;;13.31;84.16;99929.69;8253824;28;20057;-63
2022/04/25 08:26:55;;;;;;;59.03;21.52;;;;;;;13.10;85.65;99937.50;8252629;28;20045;-63
2022/04/25 08:30:56;;;;;;;18.92;15.30;;;;;;;13.34;85.67;99935.63;8252895;28;20034;-63
2022/04/25 08:34:56;;;;;;;20.15;15.13;;;;;;;13.49;83.54;99949.34;8251919;28;20091;-63
2022/04/25 08:38:57;;;;;;;68.10;21.38;;;;;;;13.20;86.29;99946.31;8251561;28;20064;-63
2022/04/25 08:42:58;;;;;;;21.55;17.17;;;;;;;13.04;85.33;99954.47;8253436;28;20042;-61
2022/04/25 08:46:59;;;;;;;26.40;19.58;;;;;;;12.78;87.97;99964.63;8252876;28;20042;-62
2022/04/25 08:51:00;;;;;;;23.73;18.30;;;;;;;12.46;87.48;99969.97;8284482;28;20107;-63
2022/04/25 08:55:02;;;;;;;26.80;20.55;;;;;;;12.43;87.15;99970.28;8252966;28;20080;-62
2022/04/25 08:59:05;;;;;;;29.65;21.73;;;;;;;12.53;89.46;99971.03;8251604;28;20043;-62
2022/04/25 09:03:05;;;;;;;26.10;20.73;;;;;;;12.53;87.17;99976.44;8246457;28;20092;-62
2022/04/25 09:07:06;;;;;;;26.48;19.90;;;;;;;12.97;86.42;99975.13;8252331;28;20058;-62
2022/04/25 09:12:10;;;;;;;28.23;20.20;;;;;;;13.04;85.36;99981.59;8252169;28;20045;-63
2022/04/25 09:15:27;;;;;;;23.33;18.63;;;;;;;13.36;82.62;99976.19;8244687;28;20062;-62
2022/04/25 09:19:28;;;;;;;24.13;19.48;;;;;;;13.37;82.09;99972.44;8251687;28;20050;-62
2022/04/25 09:23:28;;;;;;;22.35;17.77;;;;;;;14.70;80.50;99979.59;8249573;28;20034;-62
2022/04/25 09:27:28;;;;;;;21.85;16.50;;;;;;;15.08;75.81;99978.63;8251861;28;20406;-62
2022/04/25 09:31:29;;;;;;;20.08;16.75;;;;;;;15.30;75.09;99977.75;8251436;28;20631;-62
2022/04/25 09:35:33;;;;;;;16.85;13.93;;;;;;;15.70;72.71;99985.56;8250569;28;20084;-62
2022/04/25 09:39:33;;;;;;;16.40;14.25;;;;;;;16.18;70.96;99979.56;8251184;28;20130;-63
2022/04/25 09:43:37;;;;;;;12.52;10.43;;;;;;;17.13;65.42;99975.63;8251968;28;20432;-62
2022/04/25 09:47:38;;;;;;;16.00;12.30;;;;;;;16.58;66.91;99980.91;8251111;28;20046;-62
2022/04/25 09:51:58;;;;;;;16.92;13.02;;;;;;;15.18;71.62;99974.63;8372490;28;23077;-62
2022/04/25 09:56:09;;;;;;;16.27;12.48;;;;;;;14.78;71.71;99983.09;8368753;28;20090;-62
2022/04/25 10:00:10;;;;;;;17.25;13.20;;;;;;;14.48;71.15;99988.53;8385587;28;20036;-62
2022/04/25 10:04:32;;;;;;;16.23;12.00;;;;;;;14.50;69.12;99987.38;8386351;28;20052;-63
2022/04/25 10:08:35;;;;;;;14.95;12.52;;;;;;;15.84;68.31;99992.06;8386158;28;20094;-62
2022/04/25 10:12:37;;;;;;;15.15;12.55;;;;;;;17.17;65.29;99985.16;8385447;28;20040;-63
2022/04/25 10:16:37;;;;;;;15.20;11.80;;;;;;;19.49;58.20;99991.22;8385224;28;20040;-63
2022/04/25 10:20:40;;;;;;;13.20;10.25;;;;;;;17.90;61.65;100001.97;8384388;28;20508;-63
2022/04/25 10:24:41;;;;;;;13.50;10.90;;;;;;;16.06;65.50;100002.88;8387003;28;20028;-63
2022/04/25 10:28:48;;;;;;;15.32;11.27;;;;;;;15.60;68.88;100001.34;8386449;28;20056;-62
2022/04/25 10:32:49;;;;;;;14.75;12.20;;;;;;;14.73;69.23;99990.13;8380691;28;20056;-62
2022/04/25 10:36:50;;;;;;;14.10;11.05;;;;;;;14.55;70.53;99997.72;8386651;28;20422;-62
2022/04/25 10:45:11;;;;;;;9.63;8.55;;;;;;;19.33;58.16;99997.13;8385608;28;20048;-62
2022/04/25 10:49:12;;;;;;;8.52;7.57;;;;;;;18.16;58.56;100002.13;8386312;28;20512;-62
2022/04/25 10:53:12;;;;;;;11.25;9.00;;;;;;;16.31;63.41;100017.91;8392264;28;20377;-63
2022/04/25 10:57:14;;;;;;;10.65;9.55;;;;;;;15.52;64.99;100010.44;8392389;28;20041;-63
2022/04/25 11:01:30;;;;;;;10.60;8.48;;;;;;;15.30;66.05;100005.84;8390944;28;20056;-63
2022/04/25 11:05:35;;;;;;;10.88;8.13;;;;;;;15.04;64.75;100002.63;8388581;28;20036;-62
2022/04/25 11:09:39;;;;;;;8.85;7.85;;;;;;;16.90;61.99;100019.53;8391072;28;20048;-62
2022/04/25 11:18:33;;;;;;;8.73;7.85;;;;;;;15.23;66.28;100015.78;8421069;27;20156;-61
2022/04/25 11:31:21;;;;;;;12.48;9.15;;;;;;;14.92;70.19;100020.44;8441201;27;20129;-62
2022/04/25 11:35:23;;;;;;;7.82;7.05;;;;;;;14.74;68.71;100024.47;8389401;28;20037;-62
2022/04/25 11:39:57;;;;;;;8.70;7.70;;;;;;;14.19;70.08;100024.53;8396853;28;20063;-62
2022/04/25 11:43:45;;;;;;;8.25;7.35;;;;;;;14.10;70.99;100025.59;8433474;27;20047;-62
2022/04/25 11:47:45;;;;;;;8.55;7.20;;;;;;;14.21;71.21;100037.94;8437112;27;20083;-62
2022/04/25 11:51:50;;;;;;;11.73;8.18;;;;;;;14.12;70.69;100034.38;8423915;28;20052;-62
2022/04/25 11:55:51;;;;;;;;;;;;;;;13.84;70.74;100035.81;8437468;27;20331;-62
2022/04/25 12:00:06;;;;;;;14.07;8.63;;;;;;;13.74;74.57;100046.03;8416449;27;19920;-62
2022/04/25 12:17:14;;;;;;;16.08;12.20;;;;;;;12.30;90.13;100072.91;8447089;28;20039;-61
2022/04/25 12:21:17;;;;;;;18.20;13.85;;;;;;;12.22;94.38;100075.59;8419209;28;20047;-61
2022/04/25 12:25:20;;;;;;;15.50;12.95;;;;;;;11.97;93.04;100076.47;8408438;28;20685;-61
2022/04/25 12:29:20;;;;;;;17.02;14.07;;;;;;;11.42;95.73;100081.28;8411238;28;20044;-61
2022/04/25 12:33:25;;;;;;;22.70;16.05;;;;;;;11.49;100.00;100088.63;8413630;28;20044;-61
2022/04/25 12:37:25;;;;;;;18.98;14.93;;;;;;;11.61;96.53;100087.38;8412516;28;20048;-61
2022/04/25 12:41:30;;;;;;;17.33;12.27;;;;;;;11.67;92.15;100085.91;8413805;28;20524;-61
2022/04/25 12:45:47;;;;;;;;;;;;;;;11.62;90.24;100082.84;8413898;28;20048;-61
2022/04/25 12:49:48;;;;;;;18.92;14.65;;;;;;;12.42;95.51;100099.59;8415633;28;19916;-61
2022/04/25 12:53:48;;;;;;;11.80;10.35;;;;;;;12.90;86.72;100091.59;8419799;28;20046;-62
2022/04/25 12:57:51;;;;;;;14.37;11.07;;;;;;;13.24;84.66;100097.81;8412203;28;20062;-61
2022/04/25 13:02:06;;;;;;;12.10;10.52;;;;;;;13.71;82.21;100101.59;8413127;28;20365;-61
2022/04/25 13:06:06;;;;;;;13.30;11.52;;;;;;;14.30;83.79;100097.59;8413064;28;20044;-62
2022/04/25 13:10:09;;;;;;;8.15;7.30;;;;;;;13.82;79.32;100086.81;8412389;28;20043;-61
2022/04/25 13:14:10;;;;;;;6.20;5.60;;;;;;;13.81;77.52;100091.38;8412631;28;20186;-61
2022/04/25 13:18:11;;;;;;;5.82;4.75;;;;;;;13.85;75.75;100079.13;8398967;28;20041;-61
2022/04/25 13:22:12;;;;;;;5.07;4.57;;;;;;;13.97;75.07;100073.34;8370278;28;20397;-61
2022/04/25 13:26:12;;;;;;;7.43;5.97;;;;;;;13.69;76.74;100081.03;8386237;28;20033;-62
2022/04/25 13:30:13;;;;;;;10.13;9.00;;;;;;;13.80;79.77;100099.69;8386600;28;20044;-62
2022/04/25 13:34:13;;;;;;;11.73;8.70;;;;;;;13.71;79.51;100096.16;8388018;28;20051;-62
2022/04/25 13:38:14;;;;;;;10.40;8.43;;;;;;;13.55;78.91;100095.31;8385031;28;20105;-62
2022/04/25 13:42:14;;;;;;;11.52;9.65;;;;;;;13.39;82.93;100108.88;8386789;28;20445;-62
2022/04/25 13:46:15;;;;;;;11.82;10.63;;;;;;;13.47;84.02;100103.44;8387577;28;20825;-63
2022/04/25 13:50:15;;;;;;;10.75;9.18;;;;;;;13.47;81.87;100098.00;8382114;28;20048;-63
2022/04/25 13:54:16;;;;;;;7.65;6.72;;;;;;;13.58;75.86;100100.41;8378849;28;20685;-63
2022/04/25 13:58:17;;;;;;;8.13;7.32;;;;;;;13.61;78.43;100100.06;8384061;28;20218;-63
2022/04/25 14:03:18;;;;;;;6.88;6.18;;;;;;;13.63;76.98;100106.16;8371295;28;20420;-62
2022/04/25 14:06:39;;;;;;;4.93;4.53;;;;;;;13.41;75.31;100088.69;8380840;28;20564;-62
2022/04/25 14:10:41;;;;;;;4.35;3.95;;;;;;;13.75;75.89;100086.63;8381047;28;20089;-62
2022/04/25 14:14:42;;;;;;;3.25;2.95;;;;;;;14.01;73.17;100081.00;8362387;28;20060;-63
2022/04/25 14:18:42;;;;;;;3.83;3.53;;;;;;;14.47;76.27;100085.63;8379951;28;20040;-62
2022/04/25 14:22:43;;;;;;;3.22;2.35;;;;;;;14.25;73.14;100077.38;8382144;28;20317;-62
2022/04/25 14:26:44;;;;;;;4.63;3.05;;;;;;;14.48;76.41;100079.16;8380579;28;20036;-62
2022/04/25 14:30:44;;;;;;;3.60;3.22;;;;;;;14.23;73.17;100069.41;8396853;28;20037;-62
2022/04/25 14:34:45;;;;;;;3.50;3.20;;;;;;;14.13;71.46;100076.88;8381535;28;20112;-62
2022/04/25 14:38:45;;;;;;;3.22;2.92;;;;;;;14.25;70.87;100072.81;8379857;28;20105;-62
2022/04/25 14:42:47;;;;;;;3.35;2.53;;;;;;;14.42;67.63;100063.56;8370052;28;20579;-62
2022/04/25 14:46:48;;;;;;;2.60;2.40;;;;;;;14.43;66.93;100064.41;8375429;28;20238;-62
2022/04/25 14:55:10;;;;;;;2.50;2.30;;;;;;;14.56;65.84;100070.97;8375773;28;20471;-62
2022/04/25 14:59:11;;;;;;;3.67;3.13;;;;;;;14.54;64.98;100073.03;8387833;28;20052;-62
2022/04/25 15:03:12;;;;;;;2.90;2.70;;;;;;;14.74;64.30;100068.00;8366689;28;20094;-62
2022/04/25 15:07:12;;;;;;;2.95;2.75;;;;;;;14.75;63.72;100070.53;8373743;28;20045;-62
2022/04/25 15:11:13;;;;;;;4.22;3.50;;;;;;;14.96;63.42;100068.03;8375748;28;20043;-62
2022/04/25 15:15:13;;;;;;;3.70;3.40;;;;;;;15.15;63.13;100073.00;8375440;28;20037;-62
2022/04/25 15:19:14;;;;;;;4.45;4.05;;;;;;;15.22;63.23;100078.59;8374387;28;20040;-63
2022/04/25 15:23:14;;;;;;;4.22;3.85;;;;;;;14.86;64.59;100083.75;8375005;28;20044;-62
2022/04/25 15:27:15;;;;;;;7.53;6.68;;;;;;;14.81;61.96;100091.59;8374254;28;20091;-62
2022/04/25 15:31:16;;;;;;;8.48;7.22;;;;;;;14.69;64.44;100093.03;8375622;28;20122;-62
2022/04/25 15:35:16;;;;;;;10.40;9.23;;;;;;;14.44;66.81;100099.59;8375164;28;20046;-62
2022/04/25 15:39:17;;;;;;;11.35;8.30;;;;;;;14.51;67.58;100100.56;8376307;28;20043;-62
2022/04/25 15:43:18;;;;;;;13.55;11.25;;;;;;;14.73;67.61;100094.34;8379124;28;20423;-62
2022/04/25 15:47:19;;;;;;;15.90;13.25;;;;;;;14.52;69.50;100088.66;8374611;28;20450;-62
2022/04/25 15:51:19;;;;;;;17.48;12.35;;;;;;;14.56;69.96;100095.47;8373163;28;20044;-62
2022/04/25 15:59:40;;;;;;;11.80;9.98;;;;;;;14.76;67.35;100083.09;8382570;28;20523;-62
2022/04/25 16:03:41;;;;;;;14.02;11.20;;;;;;;14.79;68.37;100081.94;8373190;28;20523;-62
2022/04/25 16:07:42;;;;;;;14.70;10.43;;;;;;;14.70;67.33;100083.81;8355948;28;20127;-62
2022/04/25 16:11:42;;;;;;;11.55;9.15;;;;;;;14.87;66.58;100085.44;8371691;28;20536;-62
2022/04/25 16:15:43;;;;;;;17.95;11.70;;;;;;;14.76;67.81;100085.84;8368408;28;20048;-62
2022/04/25 16:19:44;;;;;;;16.83;12.98;;;;;;;14.72;69.39;100092.66;8371796;28;20040;-62
2022/04/25 16:23:44;;;;;;;26.88;20.60;;;;;;;14.62;74.12;100091.19;8376454;28;20128;-62
2022/04/25 16:27:45;;;;;;;33.58;23.35;;;;;;;14.37;75.71;100092.31;8370221;28;20040;-62
2022/04/25 16:31:45;;;;;;;32.08;22.88;;;;;;;14.30;75.97;100097.59;8372176;28;20423;-62
2022/04/25 16:35:46;;;;;;;31.63;22.75;;;;;;;14.15;76.83;100096.56;8374061;28;20051;-62
2022/04/25 16:39:46;;;;;;;34.00;23.20;;;;;;;14.00;76.67;100098.28;8371190;28;20045;-62
2022/04/25 16:43:46;;;;;;;37.33;24.45;;;;;;;14.00;77.54;100103.72;8373409;28;20045;-62
2022/04/25 16:47:47;;;;;;;32.13;23.43;;;;;;;13.81;77.64;100106.81;8373049;28;20052;-62
2022/04/25 16:51:47;;;;;;;33.22;23.50;;;;;;;14.02;77.77;100115.28;8372759;28;20294;-62
2022/04/25 16:55:48;;;;;;;38.30;24.58;;;;;;;13.81;77.16;100112.25;8377815;28;20390;-62
2022/04/25 16:59:49;;;;;;;36.67;25.05;;;;;;;13.73;77.64;100115.00;8379930;28;20127;-62
2022/04/25 17:03:49;;;;;;;33.97;24.73;;;;;;;13.67;77.79;100115.69;8377011;28;20055;-62
2022/04/25 17:07:49;;;;;;;33.17;24.80;;;;;;;13.58;78.12;100117.53;8380097;28;20052;-62
2022/04/25 17:11:50;;;;;;;32.80;24.23;;;;;;;13.51;78.05;100119.22;8379738;28;20036;-62
2022/04/25 17:15:51;;;;;;;35.55;24.70;;;;;;;13.47;77.64;100123.31;8360451;28;20390;-62
2022/04/25 17:19:52;;;;;;;33.75;23.75;;;;;;;13.47;78.54;100131.44;8382513;28;20060;-62
2022/04/25 17:23:54;;;;;;;34.75;22.77;;;;;;;13.40;78.29;100135.00;8372589;28;20047;-62
2022/04/25 17:27:54;;;;;;;31.92;22.48;;;;;;;13.27;78.58;100145.50;8374734;28;20051;-62
2022/04/25 17:36:15;;;;;;;32.90;23.30;;;;;;;12.91;80.50;100146.72;8370665;28;20062;-62
2022/04/25 17:46:08;;;;;;;31.17;23.02;;;;;;;12.53;81.50;100149.97;8373626;28;20040;-62
